Waterford, California
Current Conditions -  °F | °C
As of 9:45 AM on Friday 21 Nov 2014 (Local Time) from KMER Reporting Station
Haze Haze  
Wind Chill: 52°   Ceiling: 800
Heat Index: 52°   Visibility: 4mi
Dew Point: 52°   Wind: 9mph
Humidity: 100%   Direction: 350°N
Pressure: 30.13"   Gusts: NA
Location:  37.64°N, 120.76°W
Report Text: KMER 211745Z 35008KT 4SM BR OVC008 11/11 A3013
Loading
Personal Weather Stations






























Interactive Weather Map New forecast layout! Learn more

10-Day Weather Forecast

Advertisements
Track Severe Weather on mobile